Terminal Aerodrome Forecast
Issued by NWS

Home | Current Version | Previous Version | Text Only | Print | Product List | Glossary On
Versions: 1 2 3 4 5 6 7 8 9 10 11 12
595
FTPA31 PHFO 272320
TAFHTO
TAF
PHTO 272320Z 2800/2824 05011KT P6SM FEW030 BKN045
     FM280500 23005KT P6SM SCT025 BKN045
     FM282000 04011KT P6SM SCT025 BKN045=

USA.gov is the U.S. government's official web portal to all federal, state and local government web resources and services.